createdAt,value
2019-03-28T00:00:50.570Z,3.30
2019-03-28T00:03:20.523Z,3.20
2019-03-28T00:05:48.659Z,3.20
2019-03-28T00:08:16.663Z,3.20
2019-03-28T00:10:44.826Z,3.10
2019-03-28T00:13:13.148Z,3.10
2019-03-28T00:15:41.185Z,3.10
2019-03-28T00:18:09.646Z,3.00
2019-03-28T00:20:37.656Z,3.00
2019-03-28T00:23:28.963Z,3.00
2019-03-28T00:25:57.103Z,3.00
2019-03-28T00:28:25.130Z,2.90
2019-03-28T00:30:53.130Z,2.90
2019-03-28T00:33:21.146Z,2.90
2019-03-28T00:35:49.221Z,3.00
2019-03-28T00:38:17.245Z,2.90
2019-03-28T00:40:45.307Z,2.90
2019-03-28T00:43:13.542Z,2.90
2019-03-28T00:45:44.415Z,2.90
2019-03-28T00:48:11.470Z,2.90
2019-03-28T00:50:39.467Z,2.80
2019-03-28T00:53:07.439Z,2.80
2019-03-28T00:55:35.492Z,2.80
2019-03-28T00:58:03.496Z,2.80
2019-03-28T01:00:31.525Z,2.80
2019-03-28T01:02:59.550Z,2.80
2019-03-28T01:05:29.446Z,2.80
2019-03-28T01:07:57.504Z,2.70
2019-03-28T01:10:26.613Z,2.70
2019-03-28T01:12:54.625Z,2.70
2019-03-28T01:15:23.283Z,2.70
2019-03-28T01:17:51.532Z,2.60
2019-03-28T01:20:19.479Z,2.60
2019-03-28T01:22:47.451Z,2.60
2019-03-28T01:25:18.358Z,2.60
2019-03-28T01:27:46.334Z,2.60
2019-03-28T01:30:14.690Z,2.60
2019-03-28T01:32:42.617Z,2.60
2019-03-28T01:35:10.596Z,2.60
2019-03-28T01:37:38.546Z,2.60
2019-03-28T01:40:06.652Z,2.60
2019-03-28T01:42:34.633Z,2.60
2019-03-28T01:45:02.696Z,2.60
2019-03-28T01:47:31.780Z,2.70
2019-03-28T01:49:59.713Z,2.70
2019-03-28T01:52:27.811Z,2.70
2019-03-28T01:54:55.784Z,2.70
2019-03-28T01:57:23.856Z,2.70
2019-03-28T01:59:51.820Z,2.70
2019-03-28T02:02:20.207Z,2.80
2019-03-28T02:04:48.253Z,2.70
2019-03-28T02:07:16.283Z,2.70
2019-03-28T02:09:45.394Z,2.80
2019-03-28T02:12:13.414Z,2.80
2019-03-28T02:14:41.391Z,2.80
2019-03-28T02:17:09.397Z,2.80
2019-03-28T02:19:37.393Z,2.80
2019-03-28T02:22:05.413Z,2.80
2019-03-28T02:24:33.401Z,2.80
2019-03-28T02:27:01.482Z,2.80
2019-03-28T02:29:29.437Z,2.80
2019-03-28T02:31:57.482Z,2.70
2019-03-28T02:34:25.526Z,2.80
2019-03-28T02:36:53.678Z,2.80
2019-03-28T02:39:21.767Z,2.90
2019-03-28T02:41:49.757Z,2.90
2019-03-28T02:44:18.014Z,2.90
2019-03-28T02:46:45.995Z,2.90
2019-03-28T02:49:13.993Z,2.90
2019-03-28T02:51:42.004Z,2.90
2019-03-28T02:54:09.992Z,2.90
2019-03-28T02:56:38.113Z,3.00
2019-03-28T02:59:07.329Z,3.00
2019-03-28T03:01:35.330Z,3.00
2019-03-28T03:04:04.486Z,3.00
2019-03-28T03:06:32.482Z,3.00
2019-03-28T03:09:00.500Z,3.00
2019-03-28T03:11:28.483Z,3.00
2019-03-28T03:13:56.482Z,3.10
2019-03-28T03:16:24.487Z,3.00
2019-03-28T03:18:52.482Z,3.10
2019-03-28T03:21:21.561Z,3.00
2019-03-28T03:23:49.554Z,3.00
2019-03-28T03:26:17.757Z,3.00
2019-03-28T03:28:46.917Z,3.00
2019-03-28T03:31:20.479Z,3.00
2019-03-28T03:33:44.823Z,3.00
2019-03-28T03:36:12.847Z,3.00
2019-03-28T03:38:40.836Z,2.90
2019-03-28T03:41:08.849Z,3.00
2019-03-28T03:43:36.824Z,2.90
2019-03-28T03:46:04.893Z,2.90
2019-03-28T03:48:32.855Z,2.90
2019-03-28T03:51:00.973Z,2.90
2019-03-28T03:53:28.949Z,2.80
2019-03-28T03:55:57.013Z,2.80
2019-03-28T03:58:24.994Z,2.70
2019-03-28T04:01:03.033Z,2.70
2019-03-28T04:03:32.734Z,2.60
2019-03-28T04:06:00.766Z,2.60
2019-03-28T04:08:28.755Z,2.50
2019-03-28T04:10:56.761Z,2.50
2019-03-28T04:13:24.803Z,2.50
2019-03-28T04:15:52.801Z,2.40
2019-03-28T04:18:22.256Z,2.40
2019-03-28T04:20:51.625Z,2.30
2019-03-28T04:23:20.131Z,2.30
2019-03-28T04:25:48.203Z,2.30
2019-03-28T04:28:30.748Z,2.20
2019-03-28T04:30:46.090Z,2.20
2019-03-28T04:33:14.142Z,2.20
2019-03-28T04:35:42.210Z,2.10
2019-03-28T04:38:10.249Z,2.00
2019-03-28T04:40:38.272Z,2.00
2019-03-28T04:43:06.275Z,2.00
2019-03-28T04:45:34.274Z,2.00
2019-03-28T04:48:02.329Z,2.00
2019-03-28T04:50:30.369Z,2.00
2019-03-28T04:52:58.392Z,1.90
2019-03-28T04:55:26.460Z,1.90
2019-03-28T04:57:55.404Z,1.90
2019-03-28T05:00:23.971Z,1.90
2019-03-28T05:02:54.923Z,1.90
2019-03-28T05:05:23.338Z,1.80
2019-03-28T05:07:51.483Z,1.80
2019-03-28T05:10:19.653Z,1.80
2019-03-28T05:12:47.767Z,1.80
2019-03-28T05:15:15.753Z,1.80
2019-03-28T05:17:43.818Z,1.80
2019-03-28T05:20:13.452Z,1.80
2019-03-28T05:22:41.826Z,1.70
2019-03-28T05:25:10.958Z,1.70
2019-03-28T05:27:40.107Z,1.70
2019-03-28T05:30:09.764Z,1.70
2019-03-28T05:32:37.875Z,1.70
2019-03-28T05:35:06.070Z,1.80
2019-03-28T05:37:34.066Z,1.80
2019-03-28T05:40:02.044Z,1.80
2019-03-28T05:42:30.109Z,1.80
2019-03-28T05:44:58.073Z,1.90
2019-03-28T05:47:26.089Z,1.90
2019-03-28T05:49:54.302Z,2.00
2019-03-28T05:52:22.351Z,2.00
2019-03-28T05:54:50.362Z,2.10
2019-03-28T05:57:18.385Z,2.10
2019-03-28T05:59:46.377Z,2.20
2019-03-28T06:02:14.369Z,2.20
2019-03-28T06:04:42.683Z,2.30
2019-03-28T06:07:10.741Z,2.40
2019-03-28T06:09:40.254Z,2.50
2019-03-28T06:12:08.696Z,2.70
2019-03-28T06:14:36.688Z,3.00
2019-03-28T06:17:04.681Z,3.70
2019-03-28T06:19:32.712Z,4.60
2019-03-28T06:22:00.703Z,5.70
2019-03-28T06:24:28.706Z,6.80
2019-03-28T06:26:56.738Z,7.80
2019-03-28T06:29:25.909Z,8.80
2019-03-28T06:31:55.495Z,9.80
2019-03-28T06:34:23.902Z,10.70
2019-03-28T06:36:52.996Z,11.60
2019-03-28T06:39:21.042Z,12.30
2019-03-28T06:41:49.000Z,13.10
2019-03-28T06:44:16.981Z,13.80
2019-03-28T06:46:44.965Z,14.20
2019-03-28T06:49:12.963Z,14.70
2019-03-28T06:51:41.351Z,15.30
2019-03-28T06:54:09.414Z,16.00
2019-03-28T06:56:37.417Z,16.60
2019-03-28T06:59:05.423Z,17.10
2019-03-28T07:01:33.465Z,17.80
2019-03-28T07:04:01.546Z,18.00
2019-03-28T07:06:30.640Z,18.70
2019-03-28T07:08:58.664Z,19.50
2019-03-28T07:11:27.153Z,20.00
2019-03-28T07:13:55.259Z,20.60
2019-03-28T07:16:23.234Z,21.00
2019-03-28T07:18:51.318Z,21.40
2019-03-28T07:21:19.345Z,21.10
2019-03-28T07:23:48.434Z,21.50
2019-03-28T07:26:16.660Z,21.90
2019-03-28T07:28:44.778Z,22.60
2019-03-28T07:31:12.902Z,23.20
2019-03-28T07:33:40.972Z,23.80
2019-03-28T07:36:08.978Z,24.60
2019-03-28T07:38:37.034Z,25.20
2019-03-28T07:41:05.015Z,26.20
2019-03-28T07:43:33.017Z,26.60
2019-03-28T07:46:01.144Z,27.70
2019-03-28T07:48:29.499Z,28.60
2019-03-28T07:50:57.597Z,29.30
2019-03-28T07:53:25.626Z,29.60
2019-03-28T07:55:53.617Z,29.60
2019-03-28T07:58:21.711Z,30.20
2019-03-28T08:00:49.819Z,30.20
2019-03-28T08:03:17.985Z,30.70
2019-03-28T08:05:45.933Z,31.00
2019-03-28T08:08:14.555Z,31.40
2019-03-28T08:10:42.858Z,31.30
2019-03-28T08:13:10.910Z,31.10
2019-03-28T08:15:38.931Z,31.60
2019-03-28T08:18:07.070Z,31.60
2019-03-28T08:20:35.247Z,32.20
2019-03-28T08:23:03.256Z,32.90
2019-03-28T08:25:31.297Z,33.20
2019-03-28T08:27:59.401Z,33.00
2019-03-28T08:30:34.259Z,33.50
2019-03-28T08:33:02.736Z,33.50
2019-03-28T08:35:31.043Z,33.70
2019-03-28T08:37:59.097Z,34.40
2019-03-28T08:40:43.790Z,33.60
2019-03-28T08:43:12.189Z,34.30
2019-03-28T08:45:40.176Z,34.70
2019-03-28T08:48:08.221Z,35.00
2019-03-28T08:50:36.330Z,35.60
2019-03-28T08:53:04.579Z,36.00
2019-03-28T08:55:32.600Z,35.70
2019-03-28T08:58:00.583Z,36.00
2019-03-28T09:00:35.199Z,36.40
2019-03-28T09:02:58.620Z,37.00
2019-03-28T09:05:26.896Z,37.10
2019-03-28T09:07:55.041Z,37.20
2019-03-28T09:10:23.059Z,37.20
2019-03-28T09:12:51.226Z,37.30
2019-03-28T09:15:19.314Z,37.00
2019-03-28T09:17:47.373Z,36.40
2019-03-28T09:20:15.568Z,36.80
2019-03-28T09:22:44.607Z,37.10
2019-03-28T09:25:12.725Z,36.10
2019-03-28T09:27:40.683Z,35.70
2019-03-28T09:30:09.525Z,35.10
2019-03-28T09:32:37.525Z,34.60
2019-03-28T09:35:06.401Z,34.10
2019-03-28T09:37:34.389Z,34.60
2019-03-28T09:40:02.355Z,34.70
2019-03-28T09:42:30.398Z,34.50
2019-03-28T09:44:58.341Z,34.40
2019-03-28T09:47:26.409Z,34.50
2019-03-28T09:49:54.686Z,33.20
2019-03-28T09:52:22.796Z,33.50
2019-03-28T09:54:51.798Z,32.90
2019-03-28T09:57:19.915Z,33.30
2019-03-28T09:59:47.979Z,33.60
2019-03-28T10:02:16.003Z,33.20
2019-03-28T10:04:44.034Z,32.40
2019-03-28T10:07:12.084Z,32.40
2019-03-28T10:09:40.109Z,33.00
2019-03-28T10:12:08.194Z,33.10
2019-03-28T10:14:36.178Z,34.40
2019-03-28T10:17:04.453Z,35.60
2019-03-28T10:19:32.541Z,35.00
2019-03-28T10:22:00.745Z,35.10
2019-03-28T10:24:28.729Z,35.20
2019-03-28T10:26:56.752Z,36.00
2019-03-28T10:29:24.754Z,35.90
2019-03-28T10:31:52.782Z,34.80
2019-03-28T10:34:20.751Z,33.20
2019-03-28T10:36:48.761Z,32.90
2019-03-28T10:39:16.771Z,33.80
2019-03-28T10:41:44.779Z,33.60
2019-03-28T10:44:12.849Z,33.50
2019-03-28T10:46:40.930Z,33.80
2019-03-28T10:49:08.947Z,34.60
2019-03-28T10:51:37.029Z,34.80
2019-03-28T10:54:18.914Z,35.70
2019-03-28T10:56:35.208Z,35.00
2019-03-28T10:59:03.213Z,35.60
2019-03-28T11:01:47.561Z,35.90
2019-03-28T11:04:01.424Z,36.00
2019-03-28T11:06:29.480Z,35.90
2019-03-28T11:08:57.560Z,37.00
2019-03-28T11:11:25.567Z,37.50
2019-03-28T11:13:53.681Z,38.40
2019-03-28T11:16:21.682Z,38.70
2019-03-28T11:18:49.674Z,39.20
2019-03-28T11:21:18.753Z,39.30
2019-03-28T11:23:46.808Z,38.60
2019-03-28T11:26:14.781Z,38.50
2019-03-28T11:28:42.915Z,38.40
2019-03-28T11:31:11.046Z,39.20
2019-03-28T11:33:39.057Z,40.00
2019-03-28T11:36:07.150Z,40.50
2019-03-28T11:38:35.363Z,39.20
2019-03-28T11:41:03.354Z,38.90
2019-03-28T11:43:31.505Z,38.90
2019-03-28T11:45:59.520Z,40.00
2019-03-28T11:48:27.507Z,41.10
2019-03-28T11:50:55.683Z,39.90
2019-03-28T11:53:23.658Z,36.30
2019-03-28T11:55:51.692Z,34.30
2019-03-28T11:58:19.689Z,33.10
2019-03-28T12:00:48.789Z,32.30
2019-03-28T12:03:16.962Z,31.00
2019-03-28T12:05:44.981Z,29.10
2019-03-28T12:08:13.001Z,27.60
2019-03-28T12:10:41.035Z,26.00
2019-03-28T12:13:09.157Z,25.10
2019-03-28T12:15:37.355Z,24.20
2019-03-28T12:18:05.358Z,23.40
2019-03-28T12:20:33.457Z,22.60
2019-03-28T12:23:01.525Z,21.70
2019-03-28T12:25:29.604Z,21.00
2019-03-28T12:28:00.245Z,20.40
2019-03-28T12:30:27.494Z,20.00
2019-03-28T12:32:55.490Z,19.80
2019-03-28T12:35:23.476Z,19.40
2019-03-28T12:37:51.529Z,19.30
2019-03-28T12:40:19.514Z,19.10
2019-03-28T12:42:47.507Z,18.90
2019-03-28T12:45:15.860Z,18.80
2019-03-28T12:47:43.879Z,18.60
2019-03-28T12:50:12.855Z,18.30
2019-03-28T12:52:40.933Z,18.20
2019-03-28T12:55:09.990Z,18.20
2019-03-28T12:57:38.491Z,18.20
2019-03-28T13:00:07.137Z,18.30
2019-03-28T13:02:35.292Z,18.40
2019-03-28T13:05:03.665Z,18.50
2019-03-28T13:07:31.769Z,18.60
2019-03-28T13:09:59.827Z,18.70
2019-03-28T13:12:27.897Z,18.70
2019-03-28T13:14:55.938Z,18.60
2019-03-28T13:17:24.000Z,18.60
2019-03-28T13:19:52.001Z,18.50
2019-03-28T13:22:20.161Z,18.50
2019-03-28T13:24:48.193Z,18.60
2019-03-28T13:27:16.258Z,18.60
2019-03-28T13:29:44.305Z,18.50
2019-03-28T13:32:12.357Z,18.50
2019-03-28T13:34:40.876Z,18.60
2019-03-28T13:37:09.038Z,18.80
2019-03-28T13:39:36.986Z,19.20
2019-03-28T13:42:05.021Z,19.60
2019-03-28T13:44:33.179Z,19.80
2019-03-28T13:47:01.255Z,20.00
2019-03-28T13:49:29.274Z,20.00
2019-03-28T13:51:57.263Z,19.60
2019-03-28T13:54:25.314Z,19.40
2019-03-28T13:56:53.445Z,19.90
2019-03-28T13:59:21.537Z,20.40
2019-03-28T14:01:49.627Z,20.50
2019-03-28T14:04:17.624Z,20.50
2019-03-28T14:06:45.677Z,20.40
2019-03-28T14:09:13.703Z,20.10
2019-03-28T14:11:42.855Z,19.70
2019-03-28T14:14:10.880Z,19.30
2019-03-28T14:16:39.042Z,18.70
2019-03-28T14:19:07.097Z,18.30
2019-03-28T14:21:35.135Z,17.90
2019-03-28T14:24:03.341Z,17.60
2019-03-28T14:26:32.418Z,17.10
2019-03-28T14:29:00.449Z,16.80
2019-03-28T14:31:28.580Z,16.50
2019-03-28T14:33:56.618Z,16.40
2019-03-28T14:36:25.525Z,16.20
2019-03-28T14:38:53.619Z,16.10
2019-03-28T14:41:22.530Z,16.10
2019-03-28T14:43:50.643Z,16.00
2019-03-28T14:46:18.653Z,15.90
2019-03-28T14:48:46.747Z,15.90
2019-03-28T14:51:15.601Z,15.90
2019-03-28T14:53:44.001Z,15.60
2019-03-28T14:56:13.710Z,15.60
2019-03-28T14:58:43.137Z,15.60
2019-03-28T15:01:11.253Z,15.70
2019-03-28T15:03:39.264Z,15.80
2019-03-28T15:06:07.273Z,15.90
2019-03-28T15:08:35.398Z,15.90
2019-03-28T15:11:03.409Z,16.00
2019-03-28T15:13:31.437Z,16.10
2019-03-28T15:15:59.466Z,16.00
2019-03-28T15:18:27.444Z,16.00
2019-03-28T15:20:55.469Z,16.10
2019-03-28T15:23:23.480Z,15.90
2019-03-28T15:25:51.558Z,15.90
2019-03-28T15:28:19.540Z,15.90
2019-03-28T15:30:47.535Z,15.70
2019-03-28T15:33:15.534Z,15.70
2019-03-28T15:35:45.167Z,15.70
2019-03-28T15:38:13.792Z,15.60
2019-03-28T15:40:42.326Z,15.50
2019-03-28T15:43:11.691Z,15.40
2019-03-28T15:45:39.751Z,15.30
2019-03-28T15:48:07.837Z,15.20
2019-03-28T15:50:36.126Z,15.20
2019-03-28T15:53:04.237Z,15.10
2019-03-28T15:55:32.247Z,15.20
2019-03-28T15:58:00.582Z,15.10
2019-03-28T16:00:29.703Z,15.20
2019-03-28T16:02:57.899Z,15.20
2019-03-28T16:05:25.922Z,15.10
2019-03-28T16:07:53.921Z,15.20
2019-03-28T16:10:22.059Z,15.20
2019-03-28T16:12:50.098Z,15.20
2019-03-28T16:15:18.241Z,15.20
2019-03-28T16:17:47.544Z,15.30
2019-03-28T16:20:16.742Z,15.20
2019-03-28T16:22:45.203Z,15.10
2019-03-28T16:25:13.219Z,15.00
2019-03-28T16:27:41.354Z,14.90
2019-03-28T16:30:09.970Z,14.90
2019-03-28T16:32:39.030Z,14.90
2019-03-28T16:35:07.737Z,14.90
2019-03-28T16:37:35.874Z,14.80
2019-03-28T16:40:05.770Z,14.80
2019-03-28T16:42:33.806Z,14.80
2019-03-28T16:45:01.902Z,14.90
2019-03-28T16:47:30.044Z,15.10
2019-03-28T16:49:58.215Z,14.90
2019-03-28T16:52:26.266Z,14.80
2019-03-28T16:54:54.350Z,14.70
2019-03-28T16:57:22.421Z,14.50
2019-03-28T16:59:50.513Z,14.40
2019-03-28T17:02:19.612Z,14.30
2019-03-28T17:04:47.694Z,14.10
2019-03-28T17:07:15.744Z,14.00
2019-03-28T17:09:44.998Z,13.90
2019-03-28T17:12:13.097Z,13.90
2019-03-28T17:14:41.216Z,13.80
2019-03-28T17:17:09.271Z,13.70
2019-03-28T17:19:37.485Z,13.60
2019-03-28T17:22:06.918Z,13.50
2019-03-28T17:24:35.535Z,13.50
2019-03-28T17:27:03.654Z,13.50
2019-03-28T17:29:31.667Z,13.30
2019-03-28T17:31:59.694Z,13.20
2019-03-28T17:34:34.768Z,13.20
2019-03-28T17:36:57.752Z,13.10
2019-03-28T17:39:25.900Z,13.00
2019-03-28T17:41:53.941Z,12.90
2019-03-28T17:44:21.975Z,12.80
2019-03-28T17:46:50.024Z,12.70
2019-03-28T17:49:18.011Z,12.60
2019-03-28T17:51:46.061Z,12.40
2019-03-28T17:54:14.045Z,12.40
2019-03-28T17:56:42.045Z,12.30
2019-03-28T17:59:10.071Z,12.20
2019-03-28T18:01:38.170Z,12.20
2019-03-28T18:04:06.516Z,12.10
2019-03-28T18:06:35.002Z,12.10
2019-03-28T18:09:04.663Z,12.00
2019-03-28T18:11:32.789Z,11.90
2019-03-28T18:14:00.879Z,11.90
2019-03-28T18:16:28.926Z,11.90
2019-03-28T18:18:56.901Z,11.80
2019-03-28T18:21:24.905Z,11.80
2019-03-28T18:23:53.293Z,11.80
2019-03-28T18:26:21.298Z,11.80
2019-03-28T18:28:49.282Z,11.80
2019-03-28T18:31:17.321Z,11.80
2019-03-28T18:33:45.299Z,11.80
2019-03-28T18:36:13.306Z,11.80
2019-03-28T18:38:41.321Z,11.90
2019-03-28T18:41:09.438Z,11.90
2019-03-28T18:43:37.478Z,11.90
2019-03-28T18:46:05.437Z,12.00
2019-03-28T18:48:36.415Z,11.90
2019-03-28T18:51:03.434Z,12.00
2019-03-28T18:53:32.735Z,12.10
2019-03-28T18:56:00.898Z,12.10
2019-03-28T18:58:28.915Z,12.00
2019-03-28T19:00:56.920Z,12.00
2019-03-28T19:03:25.028Z,12.00
2019-03-28T19:05:53.049Z,11.90
2019-03-28T19:08:21.054Z,11.90
2019-03-28T19:10:50.815Z,11.90
2019-03-28T19:13:20.074Z,11.90
2019-03-28T19:15:48.295Z,11.90
2019-03-28T19:18:16.406Z,11.90
2019-03-28T19:20:44.405Z,11.90
2019-03-28T19:23:12.454Z,11.80
2019-03-28T19:25:41.570Z,11.80
2019-03-28T19:28:10.906Z,11.80
2019-03-28T19:30:39.293Z,11.70
2019-03-28T19:33:07.454Z,11.60
2019-03-28T19:35:38.017Z,11.60
2019-03-28T19:38:09.234Z,11.60
2019-03-28T19:40:37.664Z,11.60
2019-03-28T19:43:19.325Z,11.60
2019-03-28T19:45:36.500Z,11.60
2019-03-28T19:48:06.702Z,11.60
2019-03-28T19:50:34.726Z,11.70
2019-03-28T19:53:02.986Z,11.60
2019-03-28T19:55:31.061Z,11.60
2019-03-28T19:57:59.158Z,11.60
2019-03-28T20:00:27.182Z,11.70
2019-03-28T20:02:55.153Z,11.70
2019-03-28T20:05:23.251Z,11.70
2019-03-28T20:07:51.262Z,11.70
2019-03-28T20:10:19.447Z,11.70
2019-03-28T20:12:47.463Z,11.70
2019-03-28T20:15:15.505Z,11.70
2019-03-28T20:17:43.871Z,11.70
2019-03-28T20:20:13.417Z,11.70
2019-03-28T20:22:44.786Z,11.60
2019-03-28T20:25:11.624Z,11.60
2019-03-28T20:27:39.710Z,11.50
2019-03-28T20:30:09.592Z,11.40
2019-03-28T20:32:39.498Z,11.40
2019-03-28T20:35:10.475Z,11.30
2019-03-28T20:37:38.501Z,11.30
2019-03-28T20:40:06.965Z,11.30
2019-03-28T20:42:35.194Z,11.30
2019-03-28T20:45:03.877Z,11.20
2019-03-28T20:47:31.952Z,11.20
2019-03-28T20:50:01.002Z,11.20
2019-03-28T20:52:30.758Z,11.20
2019-03-28T20:54:59.590Z,11.20
2019-03-28T20:57:27.840Z,11.20
2019-03-28T20:59:55.739Z,11.10
2019-03-28T21:02:23.793Z,11.10
2019-03-28T21:04:52.074Z,11.10
2019-03-28T21:07:20.609Z,11.10
2019-03-28T21:09:48.629Z,11.10
2019-03-28T21:12:17.615Z,11.10
2019-03-28T21:14:45.789Z,11.00
2019-03-28T21:17:13.928Z,11.00
2019-03-28T21:19:42.982Z,10.90
2019-03-28T21:22:11.016Z,10.90
2019-03-28T21:24:39.135Z,10.90
2019-03-28T21:27:07.352Z,10.80
2019-03-28T21:29:47.986Z,10.80
2019-03-28T21:32:05.408Z,10.80
2019-03-28T21:34:33.425Z,10.80
2019-03-28T21:37:01.418Z,10.80
2019-03-28T21:39:29.531Z,10.70
2019-03-28T21:41:57.545Z,10.70
2019-03-28T21:44:26.629Z,10.70
2019-03-28T21:46:55.142Z,10.70
2019-03-28T21:49:23.177Z,10.60
2019-03-28T21:51:52.312Z,10.60
2019-03-28T21:54:20.309Z,10.50
2019-03-28T21:56:48.319Z,10.50
2019-03-28T21:59:17.680Z,10.50
2019-03-28T22:01:46.994Z,10.40
2019-03-28T22:04:15.002Z,10.40
2019-03-28T22:06:43.459Z,10.40
2019-03-28T22:09:11.961Z,10.30
2019-03-28T22:11:40.238Z,10.30
2019-03-28T22:14:08.278Z,10.30
2019-03-28T22:16:36.285Z,10.30
2019-03-28T22:19:05.420Z,10.30
2019-03-28T22:21:33.620Z,10.30
2019-03-28T22:24:01.575Z,10.30
2019-03-28T22:26:29.600Z,10.30
2019-03-28T22:28:57.592Z,10.30
2019-03-28T22:31:25.670Z,10.30
2019-03-28T22:33:53.793Z,10.30
2019-03-28T22:36:21.887Z,10.20
2019-03-28T22:38:49.872Z,10.20
2019-03-28T22:41:17.937Z,10.20
2019-03-28T22:43:45.906Z,10.10
2019-03-28T22:46:13.892Z,10.10
2019-03-28T22:48:44.339Z,10.00
2019-03-28T22:51:11.739Z,10.00
2019-03-28T22:53:39.688Z,9.90
2019-03-28T22:56:07.743Z,9.90
2019-03-28T22:58:35.785Z,9.80
2019-03-28T23:01:03.978Z,9.80
2019-03-28T23:03:32.653Z,9.70
2019-03-28T23:06:00.629Z,9.70
2019-03-28T23:08:28.633Z,9.60
2019-03-28T23:10:56.730Z,9.60
2019-03-28T23:13:24.830Z,9.50
2019-03-28T23:15:53.600Z,9.40
2019-03-28T23:18:21.846Z,9.40
2019-03-28T23:20:50.093Z,9.20
2019-03-28T23:23:18.536Z,9.20
2019-03-28T23:25:47.783Z,9.10
2019-03-28T23:28:15.897Z,9.10
2019-03-28T23:30:43.927Z,9.00
2019-03-28T23:33:11.940Z,8.90
2019-03-28T23:35:40.880Z,8.80
2019-03-28T23:38:09.070Z,8.70
2019-03-28T23:40:38.200Z,8.70
2019-03-28T23:43:06.253Z,8.60
2019-03-28T23:45:34.244Z,8.50
2019-03-28T23:48:02.281Z,8.50
2019-03-28T23:50:30.276Z,8.40
2019-03-28T23:52:58.220Z,8.30
2019-03-28T23:55:26.252Z,8.20
2019-03-28T23:57:54.550Z,8.10
